Time;durP1;ratioP1;P1;durP2;ratioP2;P2;SDS_P1;SDS_P2;PMS_P1;PMS_P2;Temp;Humidity;BMP_temperature;BMP_pressure;BME280_temperature;BME280_humidity;BME280_pressure;Samples;Min_cycle;Max_cycle;Signal;HPM_P1;HPM_P2
2021/12/05 00:19:57;;;;;;;27.13;21.05;;;1.20;1.00;;;;;;4951063;28;20233;-82
2021/12/05 00:22:30;;;;;;;26.25;21.35;;;1.20;1.00;;;;;;4944223;28;21975;-84
2021/12/05 00:24:59;;;;;;;24.55;19.95;;;1.20;1.00;;;;;;4999209;28;20235;-82
2021/12/05 00:27:35;;;;;;;26.77;20.95;;;1.20;1.00;;;;;;4987962;28;20397;-83
2021/12/05 00:30:22;;;;;;;28.00;21.58;;;1.20;1.00;;;;;;5005082;28;20322;-84
2021/12/05 00:32:54;;;;;;;26.20;19.80;;;1.10;1.00;;;;;;5002612;28;20230;-82
2021/12/05 00:41:40;;;;;;;26.90;19.85;;;1.10;1.00;;;;;;4981567;28;20285;-85
2021/12/05 00:47:28;;;;;;;27.85;21.33;;;1.10;1.00;;;;;;4973526;28;20328;-84
2021/12/05 01:01:22;;;;;;;23.23;19.33;;;1.10;1.00;;;;;;4961444;28;20233;-82
2021/12/05 01:07:07;;;;;;;23.92;18.45;;;1.10;1.00;;;;;;4987787;28;20711;-83
2021/12/05 01:09:40;;;;;;;25.25;19.30;;;1.10;1.00;;;;;;4994956;28;20226;-81
2021/12/05 01:12:21;;;;;;;25.92;19.17;;;1.20;1.00;;;;;;4986282;28;20234;-85
2021/12/05 01:15:04;;;;;;;23.23;19.45;;;1.20;1.00;;;;;;4978849;28;20286;-83
2021/12/05 01:17:40;;;;;;;26.15;20.80;;;1.20;1.00;;;;;;4987504;28;20269;-83
2021/12/05 01:20:13;;;;;;;28.83;21.17;;;1.20;1.00;;;;;;5019214;28;20235;-84
2021/12/05 01:22:46;;;;;;;27.48;19.48;;;1.30;1.00;;;;;;5007211;28;20278;-83
2021/12/05 01:25:25;;;;;;;22.08;19.55;;;1.30;1.00;;;;;;4980363;28;20234;-83
2021/12/05 01:28:00;;;;;;;24.90;19.75;;;1.30;1.00;;;;;;5000741;28;20242;-82
2021/12/05 01:30:36;;;;;;;29.05;20.05;;;1.30;1.00;;;;;;4988175;28;20675;-83
2021/12/05 01:33:11;;;;;;;27.10;21.27;;;1.30;1.00;;;;;;4988431;28;20281;-83
2021/12/05 01:35:53;;;;;;;25.63;20.98;;;1.30;1.00;;;;;;4993387;28;20240;-84
2021/12/05 01:38:32;;;;;;;24.65;20.70;;;1.30;1.00;;;;;;4987276;28;20249;-83
2021/12/05 01:41:30;;;;;;;27.20;20.65;;;1.30;1.00;;;;;;4998661;28;20226;-84
2021/12/05 01:59:39;;;;;;;29.70;21.98;;;1.30;1.00;;;;;;4973830;28;20266;-84
2021/12/05 02:29:19;;;;;;;32.53;25.13;;;1.40;1.00;;;;;;4961817;28;20245;-83
2021/12/05 02:37:29;;;;;;;34.13;25.75;;;1.40;1.00;;;;;;5015921;28;20208;-82
2021/12/05 02:43:05;;;;;;;33.90;26.77;;;1.40;1.00;;;;;;5010944;28;20239;-83
2021/12/05 02:45:46;;;;;;;33.85;26.67;;;1.50;1.00;;;;;;5004667;28;20808;-83
2021/12/05 02:48:21;;;;;;;32.35;26.33;;;1.50;1.00;;;;;;5010770;28;20266;-82
2021/12/05 02:50:50;;;;;;;31.35;26.15;;;1.50;1.00;;;;;;5025988;28;20210;-82
2021/12/05 02:56:08;;;;;;;33.83;26.95;;;1.50;1.00;;;;;;5030802;28;20226;-83
2021/12/05 02:58:41;;;;;;;35.13;28.50;;;1.50;1.00;;;;;;5019068;28;20298;-83
2021/12/05 03:01:21;;;;;;;35.10;27.15;;;1.60;1.00;;;;;;5016994;28;20229;-82
2021/12/05 03:03:58;;;;;;;36.75;26.35;;;1.50;1.00;;;;;;5012203;28;20219;-81
2021/12/05 03:06:33;;;;;;;38.40;29.55;;;1.60;1.00;;;;;;5004323;28;20222;-83
2021/12/05 03:09:06;;;;;;;35.08;28.38;;;1.60;1.00;;;;;;5023674;28;20215;-82
2021/12/05 03:11:36;;;;;;;33.78;27.98;;;1.50;1.00;;;;;;5012687;28;20215;-82
2021/12/05 03:14:09;;;;;;;38.63;28.25;;;1.60;1.00;;;;;;5005949;28;20227;-82
2021/12/05 03:19:36;;;;;;;38.60;29.35;;;1.60;1.00;;;;;;5013266;28;20701;-83
2021/12/05 03:22:07;;;;;;;39.85;29.25;;;1.50;1.00;;;;;;5028210;28;20290;-81
2021/12/05 03:24:42;;;;;;;37.42;30.10;;;1.50;1.00;;;;;;5009274;28;20233;-82
2021/12/05 03:27:22;;;;;;;35.67;29.52;;;1.50;1.00;;;;;;5009416;28;20221;-81
2021/12/05 03:30:17;;;;;;;37.63;29.55;;;1.40;1.00;;;;;;5005615;28;20249;-82
2021/12/05 03:32:50;;;;;;;38.72;28.10;;;1.50;1.00;;;;;;5010577;28;20255;-83
2021/12/05 03:35:29;;;;;;;33.00;27.00;;;1.50;1.00;;;;;;5020843;28;20226;-82
2021/12/05 03:38:02;;;;;;;40.70;29.30;;;1.50;1.00;;;;;;5007611;28;20239;-82
2021/12/05 03:40:36;;;;;;;35.90;27.60;;;1.50;1.00;;;;;;5006841;28;20234;-84
2021/12/05 03:43:11;;;;;;;39.10;27.10;;;1.60;1.00;;;;;;4984289;28;20383;-84
2021/12/05 03:45:50;;;;;;;42.38;29.98;;;1.60;1.00;;;;;;4999426;28;20310;-83
2021/12/05 03:48:22;;;;;;;34.65;27.88;;;1.70;1.00;;;;;;4983554;28;20500;-83
2021/12/05 03:51:04;;;;;;;38.83;28.90;;;1.70;1.00;;;;;;4985470;28;20230;-82
2021/12/05 03:53:33;;;;;;;40.10;29.73;;;1.70;1.00;;;;;;5005047;28;20866;-83
2021/12/05 03:56:16;;;;;;;39.40;29.55;;;1.60;1.00;;;;;;5006110;28;20226;-83
2021/12/05 03:59:02;;;;;;;36.22;28.15;;;1.60;1.00;;;;;;4985612;28;20242;-83
2021/12/05 04:01:42;;;;;;;37.33;29.17;;;1.60;1.00;;;;;;4972324;28;20230;-84
2021/12/05 04:04:23;;;;;;;39.25;28.63;;;1.60;1.00;;;;;;4983569;28;20222;-83
2021/12/05 04:06:51;;;;;;;41.13;30.98;;;1.70;1.00;;;;;;4969102;28;20251;-82
2021/12/05 04:09:30;;;;;;;38.47;28.88;;;1.70;1.00;;;;;;4991352;28;20234;-82
2021/12/05 04:12:03;;;;;;;38.80;29.00;;;1.70;1.00;;;;;;4967334;28;20254;-82
2021/12/05 04:14:37;;;;;;;36.83;28.63;;;1.80;1.00;;;;;;4967384;28;20239;-82
2021/12/05 04:20:27;;;;;;;37.05;28.23;;;1.70;1.00;;;;;;4984619;28;21119;-84
2021/12/05 04:23:00;;;;;;;37.92;29.42;;;1.80;1.00;;;;;;4972391;28;20227;-83
2021/12/05 04:29:26;;;;;;;36.47;29.13;;;1.70;1.00;;;;;;4973436;28;20221;-83
2021/12/05 04:32:54;;;;;;;38.97;28.52;;;1.70;1.00;;;;;;4972403;28;20227;-83
2021/12/05 04:38:58;;;;;;;38.75;29.50;;;1.70;1.00;;;;;;4978157;28;21599;-82
2021/12/05 04:44:34;;;;;;;39.65;28.52;;;1.80;1.00;;;;;;4974655;28;20530;-84
2021/12/05 04:47:05;;;;;;;34.40;28.50;;;1.90;1.00;;;;;;4976703;28;20329;-83
2021/12/05 04:49:40;;;;;;;39.05;29.00;;;1.90;1.00;;;;;;4990219;28;20219;-82
2021/12/05 04:52:12;;;;;;;35.90;28.48;;;1.90;1.00;;;;;;4977189;28;20244;-83
2021/12/05 04:54:40;;;;;;;38.60;29.05;;;1.90;1.00;;;;;;4969930;28;20238;-85
2021/12/05 04:57:12;;;;;;;40.28;29.33;;;1.90;1.00;;;;;;4985908;28;20219;-84
2021/12/05 04:59:46;;;;;;;39.22;28.13;;;1.90;1.00;;;;;;4989409;28;20239;-83
2021/12/05 05:02:23;;;;;;;37.15;27.88;;;2.00;1.00;;;;;;4980389;28;20215;-83
2021/12/05 05:04:54;;;;;;;40.28;29.20;;;1.90;1.00;;;;;;4979161;28;20263;-83
2021/12/05 05:07:30;;;;;;;37.08;29.17;;;2.00;1.00;;;;;;4977190;28;20226;-83
2021/12/05 05:10:01;;;;;;;42.35;31.42;;;2.00;1.00;;;;;;4997689;28;20225;-84
2021/12/05 05:12:28;;;;;;;38.50;29.50;;;2.00;1.00;;;;;;4993304;28;20228;-81
2021/12/05 05:14:58;;;;;;;39.88;30.05;;;2.00;1.00;;;;;;4973516;28;20235;-83
2021/12/05 05:17:25;;;;;;;38.58;28.70;;;2.10;1.00;;;;;;4995863;28;20215;-83
2021/12/05 05:19:57;;;;;;;35.63;29.25;;;2.00;1.00;;;;;;4993129;28;20239;-82
2021/12/05 05:22:35;;;;;;;37.22;29.85;;;2.00;1.00;;;;;;5004552;28;20922;-82
2021/12/05 05:25:32;;;;;;;40.50;30.35;;;1.90;1.00;;;;;;4989740;28;20227;-83
2021/12/05 05:39:36;;;;;;;42.70;31.05;;;1.90;1.00;;;;;;5004621;28;20230;-81
2021/12/05 05:47:41;;;;;;;44.85;31.67;;;2.00;1.00;;;;;;4967446;28;20512;-82
2021/12/05 05:50:08;;;;;;;42.63;31.25;;;2.00;1.00;;;;;;4981969;28;21128;-81
2021/12/05 05:52:39;;;;;;;41.38;29.05;;;2.10;1.00;;;;;;4988662;28;20283;-81
2021/12/05 05:55:07;;;;;;;39.30;30.40;;;2.00;1.00;;;;;;4969035;28;20230;-82
2021/12/05 05:57:40;;;;;;;43.55;32.38;;;2.00;1.00;;;;;;4993531;28;20216;-81
2021/12/05 06:00:14;;;;;;;46.30;37.75;;;2.00;1.00;;;;;;4980901;28;24175;-81
2021/12/05 06:05:27;;;;;;;39.88;31.05;;;2.00;1.00;;;;;;4992950;28;20964;-82
2021/12/05 06:07:55;;;;;;;44.83;33.40;;;2.00;1.00;;;;;;4990709;28;20691;-82
2021/12/05 06:10:25;;;;;;;37.17;28.58;;;1.90;1.00;;;;;;4988988;28;20987;-83
2021/12/05 06:12:52;;;;;;;43.75;30.63;;;1.90;1.00;;;;;;4989165;28;20819;-82
2021/12/05 06:15:21;;;;;;;40.85;31.25;;;1.90;1.00;;;;;;4988372;28;20218;-83
2021/12/05 06:17:48;;;;;;;38.15;29.40;;;1.90;1.00;;;;;;4984425;28;20240;-82
2021/12/05 06:20:17;;;;;;;46.15;31.50;;;2.00;1.00;;;;;;4986868;28;20237;-83
2021/12/05 06:22:44;;;;;;;43.28;30.83;;;2.10;1.00;;;;;;4979797;28;20223;-83
2021/12/05 06:25:19;;;;;;;43.75;32.80;;;2.00;1.00;;;;;;4988616;28;20271;-84
2021/12/05 06:27:47;;;;;;;48.92;33.22;;;2.10;1.00;;;;;;4986734;28;20346;-82
2021/12/05 06:30:28;;;;;;;44.65;32.10;;;2.10;1.00;;;;;;4989407;28;20491;-82
2021/12/05 06:38:52;;;;;;;40.88;30.20;;;2.00;1.00;;;;;;5011822;28;20288;-81
2021/12/05 06:41:33;;;;;;;39.13;28.40;;;2.00;1.00;;;;;;4993636;28;20211;-83
2021/12/05 06:46:47;;;;;;;40.95;28.80;;;1.90;1.00;;;;;;4991911;28;20230;-82
2021/12/05 06:49:14;;;;;;;42.03;29.92;;;1.90;1.00;;;;;;5024492;28;20215;-81
2021/12/05 06:51:41;;;;;;;37.67;27.50;;;1.90;1.00;;;;;;5022050;28;20228;-82
2021/12/05 06:54:08;;;;;;;36.53;29.25;;;1.80;1.00;;;;;;4998758;28;20254;-81
2021/12/05 06:56:37;;;;;;;37.72;29.45;;;1.80;1.00;;;;;;5017841;28;20214;-82
2021/12/05 06:59:07;;;;;;;40.83;29.58;;;1.80;1.00;;;;;;5004284;28;24616;-83
2021/12/05 07:01:34;;;;;;;40.33;29.65;;;1.70;1.00;;;;;;4984217;28;20251;-82
2021/12/05 07:04:10;;;;;;;41.83;29.80;;;1.70;1.00;;;;;;5001255;28;20234;-83
2021/12/05 07:06:41;;;;;;;40.25;27.83;;;1.80;1.00;;;;;;5027170;28;20274;-81
2021/12/05 07:09:09;;;;;;;39.20;29.05;;;1.70;1.00;;;;;;5008635;28;20238;-81
2021/12/05 07:11:46;;;;;;;39.47;30.05;;;1.80;1.00;;;;;;4986817;28;21270;-82
2021/12/05 07:14:34;;;;;;;39.63;30.10;;;1.80;1.00;;;;;;4993022;28;21916;-82
2021/12/05 07:17:05;;;;;;;39.17;28.73;;;1.80;1.00;;;;;;5010350;28;20252;-83
2021/12/05 07:19:44;;;;;;;37.47;29.65;;;1.80;1.00;;;;;;4994652;28;20239;-82
2021/12/05 07:22:19;;;;;;;39.33;29.88;;;1.80;1.00;;;;;;4986042;28;20226;-83
2021/12/05 07:24:49;;;;;;;42.60;29.13;;;1.90;1.00;;;;;;4978884;28;20239;-84
2021/12/05 07:41:12;;;;;;;39.95;28.80;;;1.80;1.00;;;;;;4959994;28;20235;-84
2021/12/05 07:43:41;;;;;;;40.55;29.98;;;1.80;1.00;;;;;;4980618;28;20226;-84
2021/12/05 07:46:10;;;;;;;40.75;29.30;;;1.80;1.00;;;;;;4979450;28;20286;-84
2021/12/05 07:48:43;;;;;;;42.10;30.67;;;1.90;1.00;;;;;;4998467;28;20227;-82
2021/12/05 07:51:24;;;;;;;38.47;29.48;;;1.90;1.00;;;;;;4994330;28;20232;-82
2021/12/05 07:54:00;;;;;;;41.40;29.73;;;1.90;1.00;;;;;;4998506;28;20305;-83
2021/12/05 07:56:37;;;;;;;42.38;30.17;;;1.90;1.00;;;;;;4999577;28;20237;-83
2021/12/05 07:59:23;;;;;;;44.60;30.58;;;1.90;1.00;;;;;;4995479;28;20233;-85
2021/12/05 08:16:02;;;;;;;41.33;30.70;;;2.00;1.00;;;;;;4995622;28;20250;-83
2021/12/05 08:18:30;;;;;;;42.55;31.33;;;2.00;1.00;;;;;;5002363;28;20288;-82
2021/12/05 08:21:05;;;;;;;45.15;31.65;;;2.00;1.00;;;;;;5001940;28;20255;-84
2021/12/05 08:23:35;;;;;;;44.08;32.70;;;2.10;1.00;;;;;;4997427;28;20241;-81
2021/12/05 08:26:20;;;;;;;47.97;32.80;;;2.10;1.00;;;;;;4992937;28;20438;-84
2021/12/05 08:29:01;;;;;;;48.13;33.22;;;2.10;1.00;;;;;;5014563;28;20219;-87
2021/12/05 08:31:55;;;;;;;41.65;29.85;;;2.00;1.00;;;;;;5015782;28;20230;-87
2021/12/05 08:34:44;;;;;;;47.20;34.70;;;2.10;1.00;;;;;;4990912;28;20234;-86
2021/12/05 08:37:52;;;;;;;48.05;32.63;;;2.10;1.00;;;;;;4995378;28;20609;-86
2021/12/05 09:08:26;;;;;;;47.03;35.20;;;2.10;1.00;;;;;;4992571;28;20241;-86
2021/12/05 09:23:05;;;;;;;55.10;35.17;;;2.40;1.00;;;;;;4938416;28;20281;-80
2021/12/05 09:31:17;;;;;;;56.72;37.97;;;2.40;1.00;;;;;;4982184;28;20611;-82
2021/12/05 10:07:03;;;;;;;55.00;37.03;;;2.90;1.00;;;;;;4899723;28;20399;-77
2021/12/05 10:15:19;;;;;;;47.13;33.70;;;3.30;1.00;;;;;;4994384;28;20324;-79
2021/12/05 10:18:34;;;;;;;57.90;35.90;;;3.30;1.00;;;;;;4994382;28;20478;-78
2021/12/05 10:35:45;;;;;;;57.92;39.53;;;3.50;1.00;;;;;;4997432;28;20662;-77
2021/12/05 10:38:15;;;;;;;59.25;37.40;;;3.80;1.00;;;;;;4997144;28;20222;-76
2021/12/05 10:40:52;;;;;;;50.88;35.08;;;3.90;1.00;;;;;;4996816;28;20234;-77
2021/12/05 10:43:22;;;;;;;56.05;38.03;;;3.80;1.00;;;;;;5008279;28;20263;-75
2021/12/05 10:45:52;;;;;;;52.05;33.20;;;3.60;1.00;;;;;;4996151;28;20228;-76
2021/12/05 10:48:25;;;;;;;57.58;36.72;;;3.60;1.00;;;;;;5005978;28;21118;-77
2021/12/05 10:50:53;;;;;;;58.92;37.03;;;3.60;1.00;;;;;;5005153;28;20246;-77
2021/12/05 10:53:35;;;;;;;53.67;36.08;;;3.50;1.00;;;;;;4982812;28;20446;-76
2021/12/05 10:56:22;;;;;;;53.53;37.35;;;3.50;1.00;;;;;;5008217;28;20302;-76
2021/12/05 10:58:53;;;;;;;47.92;34.95;;;3.60;1.00;;;;;;4992611;28;20421;-76
2021/12/05 11:01:32;;;;;;;53.97;34.67;;;3.40;1.00;;;;;;5005972;28;20262;-77
2021/12/05 11:04:03;;;;;;;55.35;36.38;;;3.40;1.00;;;;;;4994230;28;20261;-76
2021/12/05 11:06:38;;;;;;;50.08;33.63;;;3.30;1.00;;;;;;5007488;28;20224;-76
2021/12/05 11:09:09;;;;;;;49.97;36.38;;;3.30;1.00;;;;;;5001821;28;20249;-78
2021/12/05 11:11:37;;;;;;;55.50;34.65;;;3.30;1.00;;;;;;5009240;28;20229;-79
2021/12/05 11:14:10;;;;;;;58.38;37.35;;;3.40;1.00;;;;;;4996128;28;20241;-79
2021/12/05 11:16:42;;;;;;;51.75;36.00;;;3.30;1.00;;;;;;4978152;28;20322;-78
2021/12/05 11:19:12;;;;;;;60.40;37.97;;;3.50;1.00;;;;;;4996162;28;20230;-79
2021/12/05 11:21:46;;;;;;;54.75;38.20;;;3.50;1.00;;;;;;5000233;28;20273;-79
2021/12/05 11:24:18;;;;;;;54.28;35.20;;;3.50;1.00;;;;;;4996609;28;21011;-77
2021/12/05 11:27:01;;;;;;;61.28;42.50;;;3.40;1.00;;;;;;5000361;28;20231;-78
2021/12/05 11:29:44;;;;;;;55.65;35.70;;;3.30;1.00;;;;;;5010989;28;20227;-77
2021/12/05 11:32:15;;;;;;;53.15;35.80;;;3.30;1.00;;;;;;5003254;28;21497;-79
2021/12/05 11:34:43;;;;;;;53.88;35.70;;;3.30;1.00;;;;;;4996152;28;20224;-80
2021/12/05 11:37:10;;;;;;;47.50;32.95;;;3.20;1.00;;;;;;5001965;28;20214;-78
2021/12/05 11:39:37;;;;;;;54.13;35.85;;;3.20;1.00;;;;;;4994504;28;20235;-81
2021/12/05 11:42:13;;;;;;;49.75;35.03;;;3.10;1.00;;;;;;4998307;28;20227;-77
2021/12/05 11:44:40;;;;;;;49.65;35.38;;;3.10;1.00;;;;;;5000898;28;20227;-79
2021/12/05 11:47:15;;;;;;;54.55;36.22;;;3.10;1.00;;;;;;4983016;28;20231;-78
2021/12/05 11:49:42;;;;;;;50.50;34.70;;;3.20;1.00;;;;;;5001594;28;21112;-79
2021/12/05 11:52:10;;;;;;;56.47;36.42;;;3.10;1.00;;;;;;5006685;28;20229;-78
2021/12/05 11:54:40;;;;;;;53.97;36.50;;;3.10;1.00;;;;;;5020476;28;20248;-78
2021/12/05 11:57:11;;;;;;;58.70;36.47;;;3.10;1.00;;;;;;5026689;28;20212;-78
2021/12/05 11:59:40;;;;;;;59.00;37.53;;;3.10;1.00;;;;;;5030983;28;20207;-75
2021/12/05 12:02:10;;;;;;;53.28;35.72;;;3.20;1.00;;;;;;5032307;28;21247;-78
2021/12/05 12:04:43;;;;;;;58.40;36.60;;;3.20;1.00;;;;;;5031000;28;20996;-77
2021/12/05 12:07:21;;;;;;;51.38;35.55;;;3.20;1.00;;;;;;5028269;28;20273;-78
2021/12/05 12:09:51;;;;;;;56.55;37.13;;;3.30;1.00;;;;;;5026373;28;20315;-78
2021/12/05 12:12:18;;;;;;;54.17;35.97;;;3.40;1.00;;;;;;5032822;28;20218;-79
2021/12/05 12:14:46;;;;;;;59.22;37.88;;;3.40;1.00;;;;;;5029621;28;20234;-80
2021/12/05 12:17:16;;;;;;;57.70;38.15;;;3.40;1.00;;;;;;5013087;28;20230;-78
2021/12/05 12:19:47;;;;;;;52.78;37.33;;;3.40;1.00;;;;;;5028997;28;20710;-79
2021/12/05 12:22:15;;;;;;;57.20;38.45;;;3.40;1.00;;;;;;5009851;28;20235;-80
2021/12/05 12:24:44;;;;;;;63.92;41.10;;;3.50;1.00;;;;;;5018264;28;20243;-79
2021/12/05 12:27:13;;;;;;;59.92;41.03;;;3.60;1.00;;;;;;5027896;28;20215;-79
2021/12/05 12:29:40;;;;;;;60.03;39.35;;;3.50;1.00;;;;;;5020996;28;20234;-78
2021/12/05 12:32:12;;;;;;;53.28;36.53;;;3.40;1.00;;;;;;5011807;28;20208;-78
2021/12/05 12:34:42;;;;;;;54.70;37.42;;;3.50;1.00;;;;;;5022011;28;20238;-80
2021/12/05 12:37:12;;;;;;;50.97;35.25;;;3.50;1.00;;;;;;5025142;28;20298;-80
2021/12/05 12:39:42;;;;;;;55.67;37.65;;;3.60;1.00;;;;;;5011027;28;20241;-83
2021/12/05 12:42:17;;;;;;;50.47;33.90;;;3.70;1.00;;;;;;5027675;28;20242;-81
2021/12/05 12:44:59;;;;;;;54.63;37.72;;;3.70;1.00;;;;;;5027132;28;20249;-82
2021/12/05 12:47:32;;;;;;;52.90;37.70;;;3.80;1.00;;;;;;5026001;28;20227;-81
2021/12/05 12:50:22;;;;;;;49.78;35.47;;;3.60;1.00;;;;;;5020242;28;20224;-82
2021/12/05 12:53:13;;;;;;;47.15;35.25;;;3.60;1.00;;;;;;5019486;28;20239;-83
2021/12/05 12:55:43;;;;;;;46.20;33.88;;;3.50;1.00;;;;;;5014209;28;20222;-80
2021/12/05 12:58:11;;;;;;;53.55;35.80;;;3.60;1.00;;;;;;5003463;28;21057;-82
2021/12/05 13:00:46;;;;;;;48.47;34.08;;;3.60;1.00;;;;;;5005376;28;20329;-83
2021/12/05 13:03:26;;;;;;;45.53;32.58;;;3.50;1.00;;;;;;4982944;28;21647;-82
2021/12/05 13:11:48;;;;;;;55.50;38.88;;;3.30;1.00;;;;;;4997209;28;20365;-80
2021/12/05 13:14:16;;;;;;;56.38;40.30;;;3.40;1.00;;;;;;4994956;28;20261;-84
2021/12/05 13:16:44;;;;;;;58.35;40.40;;;3.50;1.00;;;;;;4998005;28;20297;-81
2021/12/05 13:19:19;;;;;;;66.13;46.00;;;3.60;1.00;;;;;;4993946;28;21660;-83
2021/12/05 13:21:49;;;;;;;72.60;49.22;;;3.60;1.00;;;;;;4989192;28;20242;-81
2021/12/05 13:24:27;;;;;;;64.32;44.60;;;3.60;1.00;;;;;;4996997;28;20223;-82
2021/12/05 13:27:01;;;;;;;51.50;37.53;;;3.60;1.00;;;;;;4994278;28;20237;-83
2021/12/05 13:29:29;;;;;;;46.60;35.63;;;3.60;1.00;;;;;;5003029;28;20215;-83
2021/12/05 13:32:06;;;;;;;49.17;35.28;;;3.50;1.00;;;;;;4984250;28;20226;-83
2021/12/05 13:34:49;;;;;;;48.72;33.85;;;3.40;1.00;;;;;;4982802;28;20374;-83
2021/12/05 13:37:32;;;;;;;53.00;36.88;;;3.40;1.00;;;;;;4978580;28;20238;-81
2021/12/05 13:40:16;;;;;;;54.80;34.95;;;3.40;1.00;;;;;;5009049;28;20223;-85
2021/12/05 13:42:48;;;;;;;55.15;37.10;;;3.40;1.00;;;;;;4992140;28;20263;-83
2021/12/05 13:45:29;;;;;;;52.67;35.67;;;3.40;1.00;;;;;;5010114;28;20227;-82
2021/12/05 13:48:29;;;;;;;60.97;39.38;;;3.40;1.00;;;;;;5014945;28;20231;-81
2021/12/05 13:51:02;;;;;;;53.58;35.58;;;3.40;1.00;;;;;;4996041;28;20335;-82
2021/12/05 13:53:46;;;;;;;51.83;34.55;;;3.40;1.00;;;;;;4983007;28;20287;-84
2021/12/05 13:56:24;;;;;;;49.85;32.50;;;3.40;1.00;;;;;;5002217;28;20733;-82
2021/12/05 13:58:56;;;;;;;52.80;36.00;;;3.40;1.00;;;;;;5003805;28;20269;-83
2021/12/05 14:01:27;;;;;;;53.22;33.38;;;3.40;1.00;;;;;;5000664;28;21621;-84
2021/12/05 14:04:00;;;;;;;55.78;36.45;;;3.40;1.00;;;;;;4988600;28;20245;-83
2021/12/05 14:06:43;;;;;;;57.00;35.78;;;3.40;1.00;;;;;;5001059;28;20231;-84
2021/12/05 14:09:14;;;;;;;48.45;34.33;;;3.40;1.00;;;;;;5006231;28;20889;-84
2021/12/05 14:11:53;;;;;;;49.55;32.45;;;3.40;1.00;;;;;;5010114;28;20286;-82
2021/12/05 14:14:24;;;;;;;51.75;35.25;;;3.40;1.00;;;;;;5008228;28;20286;-82
2021/12/05 14:16:54;;;;;;;53.55;36.20;;;3.50;1.00;;;;;;5009356;28;20311;-83
2021/12/05 14:19:24;;;;;;;51.75;34.28;;;3.50;1.00;;;;;;4993901;28;20227;-83
2021/12/05 14:21:53;;;;;;;51.33;35.67;;;3.50;1.00;;;;;;5007343;28;20222;-83
2021/12/05 14:24:28;;;;;;;50.08;36.25;;;3.60;1.00;;;;;;4992500;28;20237;-84
2021/12/05 14:26:59;;;;;;;50.67;35.90;;;3.60;1.00;;;;;;4994972;28;20226;-83
2021/12/05 14:29:28;;;;;;;51.72;34.25;;;3.60;1.00;;;;;;5017250;28;20228;-83
2021/12/05 14:31:58;;;;;;;48.63;35.10;;;3.60;1.00;;;;;;5007619;28;20218;-82
2021/12/05 14:34:26;;;;;;;50.80;36.30;;;3.50;1.00;;;;;;5000539;28;20236;-84
2021/12/05 14:36:56;;;;;;;49.33;36.83;;;3.50;1.00;;;;;;5021171;28;20278;-81
2021/12/05 14:39:26;;;;;;;49.83;35.85;;;3.40;1.00;;;;;;5034995;28;20250;-83
2021/12/05 14:41:58;;;;;;;49.28;34.30;;;3.40;1.00;;;;;;5035398;28;20381;-82
2021/12/05 14:44:26;;;;;;;50.97;38.65;;;3.40;1.00;;;;;;5017740;28;20254;-82
2021/12/05 14:46:57;;;;;;;49.20;35.53;;;3.40;1.00;;;;;;5035036;28;20211;-82
2021/12/05 14:49:26;;;;;;;48.47;33.85;;;3.30;1.00;;;;;;5017442;28;20219;-82
2021/12/05 14:51:54;;;;;;;53.40;36.03;;;3.30;1.00;;;;;;5029352;28;20231;-83
2021/12/05 14:54:29;;;;;;;53.65;34.58;;;3.30;1.00;;;;;;5027114;28;20849;-82
2021/12/05 14:56:58;;;;;;;46.85;34.45;;;3.30;1.00;;;;;;5030999;28;20214;-82
2021/12/05 14:59:26;;;;;;;48.45;33.60;;;3.20;1.00;;;;;;5004181;28;20247;-82
2021/12/05 15:01:57;;;;;;;54.35;34.67;;;3.10;1.00;;;;;;5016327;28;20227;-83
2021/12/05 15:04:34;;;;;;;55.40;35.88;;;3.10;1.00;;;;;;5016030;28;20238;-85
2021/12/05 15:07:02;;;;;;;46.33;33.30;;;3.10;1.00;;;;;;5006747;28;20223;-85
2021/12/05 15:09:33;;;;;;;50.78;33.05;;;3.10;1.00;;;;;;4988157;28;20306;-84
2021/12/05 15:12:06;;;;;;;49.30;34.13;;;3.10;1.00;;;;;;5010933;28;20216;-84
2021/12/05 15:14:34;;;;;;;47.42;32.10;;;3.10;1.00;;;;;;4994015;28;20231;-85
2021/12/05 15:17:05;;;;;;;53.38;36.20;;;3.20;1.00;;;;;;4987659;28;20241;-79
2021/12/05 15:19:33;;;;;;;54.53;35.80;;;3.10;1.00;;;;;;5002414;28;20663;-80
2021/12/05 15:22:00;;;;;;;51.63;34.17;;;3.10;1.00;;;;;;4986557;28;20238;-81
2021/12/05 15:24:29;;;;;;;57.35;37.33;;;3.10;1.00;;;;;;4991561;28;20234;-82
2021/12/05 15:26:58;;;;;;;53.30;35.72;;;3.10;1.00;;;;;;4992858;28;20238;-81
2021/12/05 15:29:28;;;;;;;52.08;33.70;;;3.10;1.00;;;;;;4998609;28;20351;-81
2021/12/05 15:31:57;;;;;;;48.47;34.72;;;3.10;1.00;;;;;;5001666;28;21301;-80
2021/12/05 15:34:31;;;;;;;53.42;36.63;;;3.10;1.00;;;;;;4999051;28;21537;-80
2021/12/05 15:36:59;;;;;;;56.67;37.08;;;3.10;1.00;;;;;;4995445;28;20230;-81
2021/12/05 15:39:30;;;;;;;51.95;36.83;;;3.20;1.00;;;;;;5010902;28;20227;-81
2021/12/05 15:41:59;;;;;;;59.58;36.33;;;3.20;1.00;;;;;;5001327;28;20329;-81
2021/12/05 15:44:31;;;;;;;57.08;37.28;;;3.10;1.00;;;;;;5001135;28;20247;-81
2021/12/05 15:47:04;;;;;;;57.55;35.90;;;3.10;1.00;;;;;;4982191;28;20233;-81
2021/12/05 15:50:00;;;;;;;56.25;36.97;;;3.10;1.00;;;;;;4999642;28;20911;-81
2021/12/05 15:52:37;;;;;;;62.15;39.92;;;3.10;1.00;;;;;;4988618;28;20227;-81
2021/12/05 15:55:08;;;;;;;56.03;38.22;;;3.10;1.00;;;;;;5014240;28;20231;-81
2021/12/05 15:57:37;;;;;;;68.20;44.05;;;3.10;1.00;;;;;;4988403;28;20647;-82
2021/12/05 16:00:13;;;;;;;61.55;38.80;;;3.10;1.00;;;;;;4999248;28;20305;-80
2021/12/05 16:02:46;;;;;;;58.85;38.88;;;3.00;1.00;;;;;;4987932;28;20242;-82
2021/12/05 16:05:19;;;;;;;54.25;37.33;;;3.00;1.00;;;;;;4998260;28;20235;-81
2021/12/05 16:07:47;;;;;;;62.92;40.05;;;3.00;1.00;;;;;;4993405;28;21583;-80
2021/12/05 16:10:19;;;;;;;60.65;40.75;;;2.90;1.00;;;;;;4983581;28;21131;-81
2021/12/05 16:12:50;;;;;;;65.18;40.70;;;2.90;1.00;;;;;;5000146;28;20228;-80
2021/12/05 16:15:25;;;;;;;59.45;36.83;;;2.80;1.00;;;;;;4982832;28;20334;-81
2021/12/05 16:17:57;;;;;;;61.28;38.47;;;2.80;1.00;;;;;;5000220;28;21070;-80
2021/12/05 16:20:27;;;;;;;59.55;39.20;;;2.80;1.00;;;;;;4997833;28;20235;-81
2021/12/05 16:23:10;;;;;;;59.33;38.10;;;2.80;1.00;;;;;;5001514;28;21129;-80
2021/12/05 16:25:41;;;;;;;52.97;38.10;;;2.80;1.00;;;;;;4999422;28;20230;-82
2021/12/05 16:28:12;;;;;;;60.63;37.63;;;2.80;1.00;;;;;;4992210;28;20225;-84
2021/12/05 16:30:44;;;;;;;58.20;39.35;;;2.80;1.00;;;;;;4984014;28;20234;-81
2021/12/05 16:33:12;;;;;;;57.03;39.75;;;2.90;1.00;;;;;;4980369;28;20296;-83
2021/12/05 16:35:43;;;;;;;61.08;39.70;;;2.90;1.00;;;;;;4987289;28;20229;-82
2021/12/05 16:38:27;;;;;;;59.25;38.67;;;2.90;1.00;;;;;;4997969;28;20218;-82
2021/12/05 16:41:04;;;;;;;54.35;36.45;;;2.90;1.00;;;;;;4998917;28;20250;-81
2021/12/05 16:43:34;;;;;;;57.63;36.95;;;2.90;1.00;;;;;;5003062;28;20353;-84
2021/12/05 16:46:12;;;;;;;62.78;38.63;;;2.90;1.00;;;;;;5004805;28;20289;-81
2021/12/05 16:48:42;;;;;;;60.00;39.45;;;2.90;1.00;;;;;;5001134;28;20222;-81
2021/12/05 16:51:15;;;;;;;59.38;38.47;;;2.90;1.00;;;;;;5006070;28;20312;-81
2021/12/05 16:53:46;;;;;;;56.13;35.60;;;3.00;1.00;;;;;;5001921;28;20326;-82
2021/12/05 16:56:18;;;;;;;66.55;41.72;;;3.00;1.00;;;;;;5000573;28;20227;-81
2021/12/05 16:58:46;;;;;;;60.03;40.20;;;3.00;1.00;;;;;;5000099;28;20226;-82
2021/12/05 17:01:20;;;;;;;61.15;40.10;;;3.00;1.00;;;;;;5000721;28;20310;-82
2021/12/05 17:03:48;;;;;;;61.17;40.17;;;3.10;1.00;;;;;;5000137;28;21106;-81
2021/12/05 17:06:15;;;;;;;68.32;41.92;;;3.10;1.00;;;;;;5007195;28;20228;-84
2021/12/05 17:08:45;;;;;;;73.25;41.05;;;3.20;1.00;;;;;;5017486;28;20227;-84
2021/12/05 17:11:16;;;;;;;69.32;40.75;;;3.10;1.00;;;;;;4997073;28;20375;-81
2021/12/05 17:13:45;;;;;;;67.65;40.40;;;3.20;1.00;;;;;;4984872;28;20236;-85
2021/12/05 17:16:16;;;;;;;63.78;41.33;;;3.20;1.00;;;;;;4995751;28;21038;-83
2021/12/05 17:18:46;;;;;;;65.53;40.35;;;3.20;1.00;;;;;;4999763;28;20286;-83
2021/12/05 17:21:17;;;;;;;69.68;41.65;;;3.10;1.00;;;;;;5000480;28;21144;-83
2021/12/05 17:23:45;;;;;;;64.95;40.20;;;3.10;1.00;;;;;;5002453;28;21007;-83
2021/12/05 17:26:17;;;;;;;57.72;41.28;;;3.10;1.00;;;;;;5002963;28;20220;-83
2021/12/05 17:28:47;;;;;;;67.93;41.13;;;3.00;1.00;;;;;;4980549;28;20344;-80
2021/12/05 17:31:23;;;;;;;69.95;44.03;;;3.00;1.00;;;;;;4999768;28;20225;-81
2021/12/05 17:33:53;;;;;;;68.07;39.83;;;3.00;1.00;;;;;;4996295;28;20231;-82
2021/12/05 17:36:26;;;;;;;68.25;41.70;;;3.10;1.00;;;;;;4984226;28;20269;-85
2021/12/05 17:38:56;;;;;;;69.20;43.88;;;3.00;1.00;;;;;;5010372;28;20391;-86
2021/12/05 17:41:26;;;;;;;66.22;41.38;;;3.10;1.00;;;;;;5009692;28;20214;-84
2021/12/05 17:43:53;;;;;;;64.95;41.80;;;3.10;1.00;;;;;;5008314;28;20239;-86
2021/12/05 17:46:21;;;;;;;63.67;39.72;;;3.10;1.00;;;;;;5015018;28;20690;-83
2021/12/05 17:48:49;;;;;;;66.40;40.25;;;3.00;1.00;;;;;;5011028;28;20250;-85
2021/12/05 17:51:16;;;;;;;64.40;37.92;;;3.00;1.00;;;;;;4987921;28;20318;-84
2021/12/05 17:53:44;;;;;;;72.43;44.90;;;3.00;1.00;;;;;;5002763;28;20940;-85
2021/12/05 17:56:18;;;;;;;75.95;47.00;;;3.00;1.00;;;;;;5012488;28;20223;-82